Fort Stockton Pecos County Airport
KFST : now visible

Airfield :











YOU CAN JOIN US ON...

 
LOGIN :

Register | Disclaimer

   EN    FR    IT 

 









Legend :    VFR   Marginal VFR   IFR   Intensive IFR   Very Intensive IFR
Visi :
Ceiling :
>= 8 km
>= 3000ft
5 to 8 km
1000 to 3000 ft
1500m to 5 km
500 to 1000 ft
800 to 1500m
200 to 500 ft
< 800m
< 200 ft
Symbols :   Thunderstorms  Fog  Heavy snow  Heavy precipitations  Wind > 20 kt






- Airport Elevation : 3011 ft


KFST - Fort Stockton Pecos County

CURRENT METAR :
  • 052353Z AUTO 10008KT CLR 23/M04 A3005 RMK AO2 SLP145 T02281039 10256 20222 56012

EXPIRED METARs :
  • 052253Z AUTO 05006KT CLR 24/M06 A3005 RMK AO2 SLP144 T02441056
  • 052153Z AUTO 03005KT CLR 26/M06 A3006 RMK AO2 SLP145 T02561061

TAF KFST
Valid from the 06 at 00:00 until the 07 at 00:00 UTC


052323Z 0600/0624 16010KT P6SM SKC
KZAB FIR / North America



MET'MAP, your aeronautical weather chart ! - Copyright ORBIFLY December 2007 - Disclaimer

ORBIFLY MET'MAP TEAM :

Programming & Development : Alexandra Zaïnal
Original concept : Baudouin d'Aumeries
Technical & hardware support : Manuel Goepfert
Assistance : Marc-Olivier Méhu




SOURCES & CREDITS :

   NOAA       Earth
Advisory